createdAt,value
2019-01-19T09:06:59.326Z,1005.78
2019-01-19T09:07:59.317Z,1005.88
2019-01-19T09:08:59.281Z,1005.88
2019-01-19T09:09:59.273Z,1005.82
2019-01-19T09:10:59.262Z,1005.86
2019-01-19T09:11:59.250Z,1005.83
2019-01-19T09:12:59.277Z,1005.84
2019-01-19T09:13:59.229Z,1005.89
2019-01-19T09:14:59.216Z,1005.85
2019-01-19T09:15:59.206Z,1005.81
2019-01-19T09:16:59.193Z,1005.83
2019-01-19T09:17:59.181Z,1005.77
2019-01-19T09:18:59.197Z,1005.75
2019-01-19T09:19:59.161Z,1005.77
2019-01-19T09:20:59.148Z,1005.75
2019-01-19T09:21:59.139Z,1005.72
2019-01-19T09:22:59.130Z,1005.75
2019-01-19T09:23:59.132Z,1005.76
2019-01-19T09:24:59.108Z,1005.70
2019-01-19T09:25:59.092Z,1005.74
2019-01-19T09:26:59.079Z,1005.76
2019-01-19T09:27:59.069Z,1005.78
2019-01-19T09:28:59.077Z,1005.72
2019-01-19T09:29:59.048Z,1005.74
2019-01-19T09:30:59.037Z,1005.71
2019-01-19T09:31:59.024Z,1005.72
2019-01-19T09:32:59.014Z,1005.74
2019-01-19T09:33:59.019Z,1005.76
2019-01-19T09:34:58.995Z,1005.74
2019-01-19T09:35:58.978Z,1005.76
2019-01-19T09:36:58.966Z,1005.79
2019-01-19T09:38:05.987Z,1005.69
2019-01-19T09:38:58.963Z,1005.71
2019-01-19T09:39:58.933Z,1005.67
2019-01-19T09:40:58.924Z,1005.73
2019-01-19T09:41:58.910Z,1005.75
2019-01-19T09:42:58.902Z,1005.71
2019-01-19T09:43:58.927Z,1005.73
2019-01-19T09:44:58.877Z,1005.73
2019-01-19T09:45:58.865Z,1005.74
2019-01-19T09:46:58.853Z,1005.72
2019-01-19T09:47:58.842Z,1005.70
2019-01-19T09:48:58.836Z,1005.66
2019-01-19T09:49:58.840Z,1005.70
2019-01-19T09:50:58.818Z,1005.73
2019-01-19T09:51:58.794Z,1005.72
2019-01-19T09:52:58.783Z,1005.70
2019-01-19T09:53:58.772Z,1005.77
2019-01-19T09:54:58.782Z,1005.75
2019-01-19T09:55:58.748Z,1005.78
2019-01-19T09:56:58.738Z,1005.69
2019-01-19T09:57:58.727Z,1005.74
2019-01-19T09:58:58.716Z,1005.74
2019-01-19T09:59:58.723Z,1005.72
2019-01-19T10:00:58.690Z,1005.70
2019-01-19T10:01:58.687Z,1005.70
2019-01-19T10:02:58.668Z,1005.69
2019-01-19T10:03:58.656Z,1005.72
2019-01-19T10:04:58.671Z,1005.71
2019-01-19T10:05:58.655Z,1005.63
2019-01-19T10:06:58.623Z,1005.66
2019-01-19T10:07:58.610Z,1005.62
2019-01-19T10:08:58.600Z,1005.60
2019-01-19T10:09:58.607Z,1005.64
2019-01-19T10:10:58.580Z,1005.67
2019-01-19T10:11:58.563Z,1005.62
2019-01-19T10:12:58.552Z,1005.56
2019-01-19T10:13:58.542Z,1005.63
2019-01-19T10:14:58.553Z,1005.67
2019-01-19T10:15:58.517Z,1005.63
2019-01-19T10:16:58.508Z,1005.61
2019-01-19T10:17:58.494Z,1005.64
2019-01-19T10:18:58.481Z,1005.60
2019-01-19T10:19:58.475Z,1005.54
2019-01-19T10:20:58.478Z,1005.54
2019-01-19T10:21:58.449Z,1005.60
2019-01-19T10:22:58.437Z,1005.53
2019-01-19T10:23:58.426Z,1005.53
2019-01-19T10:24:58.418Z,1005.53
2019-01-19T10:25:58.420Z,1005.54
2019-01-19T10:26:58.395Z,1005.56
2019-01-19T10:27:58.381Z,1005.54
2019-01-19T10:28:58.368Z,1005.51
2019-01-19T10:29:58.357Z,1005.54
2019-01-19T10:30:58.370Z,1005.50
2019-01-19T10:31:58.333Z,1005.51
2019-01-19T10:32:58.321Z,1005.50
2019-01-19T10:33:58.309Z,1005.48
2019-01-19T10:34:58.305Z,1005.47
2019-01-19T10:35:58.309Z,1005.47
2019-01-19T10:36:58.300Z,1005.50
2019-01-19T10:37:58.262Z,1005.43
2019-01-19T10:38:58.254Z,1005.44
2019-01-19T10:39:58.242Z,1005.39
2019-01-19T10:40:58.256Z,1005.39
2019-01-19T10:41:58.221Z,1005.37
2019-01-19T10:42:58.209Z,1005.33
2019-01-19T10:43:59.089Z,1005.32
2019-01-19T10:44:58.198Z,1005.31
2019-01-19T10:45:58.172Z,1005.32
2019-01-19T10:46:58.180Z,1005.34
2019-01-19T10:47:58.147Z,1005.31
2019-01-19T10:48:58.135Z,1005.33
2019-01-19T10:49:58.125Z,1005.29
2019-01-19T10:50:58.115Z,1005.28
2019-01-19T10:51:59.524Z,1005.28
2019-01-19T10:52:58.089Z,1005.30
2019-01-19T10:53:58.077Z,1005.33
2019-01-19T10:54:58.067Z,1005.37
2019-01-19T10:55:58.055Z,1005.35
2019-01-19T10:56:58.067Z,1005.26
2019-01-19T10:57:58.033Z,1005.31
2019-01-19T10:58:58.024Z,1005.32
2019-01-19T10:59:58.008Z,1005.31
2019-01-19T11:00:58.004Z,1005.31
2019-01-19T11:01:58.008Z,1005.30
2019-01-19T11:02:57.982Z,1005.29
2019-01-19T11:03:57.963Z,1005.26
2019-01-19T11:04:57.952Z,1005.28
2019-01-19T11:05:57.941Z,1005.19
2019-01-19T11:06:57.950Z,1005.18
2019-01-19T11:08:03.651Z,1005.23
2019-01-19T11:08:58.904Z,1005.19
2019-01-19T11:09:57.894Z,1005.24
2019-01-19T11:10:57.883Z,1005.21
2019-01-19T11:11:57.889Z,1005.19
2019-01-19T11:12:57.859Z,1005.20
2019-01-19T11:13:57.850Z,1005.17
2019-01-19T11:14:59.343Z,1005.21
2019-01-19T11:15:57.823Z,1005.13
2019-01-19T11:16:57.831Z,1005.11
2019-01-19T11:17:57.801Z,1005.08
2019-01-19T11:18:57.789Z,1005.10
2019-01-19T11:19:57.777Z,1005.05
2019-01-19T11:20:57.769Z,1005.11
2019-01-19T11:21:57.771Z,1005.06
2019-01-19T11:22:57.740Z,1005.04
2019-01-19T11:23:57.733Z,1005.02
2019-01-19T11:24:57.719Z,1005.07
2019-01-19T11:25:57.706Z,1005.02
2019-01-19T11:26:57.718Z,1005.05
2019-01-19T11:27:57.683Z,1005.04
2019-01-19T11:28:57.673Z,1005.01
2019-01-19T11:29:57.666Z,1004.94
2019-01-19T11:30:57.649Z,1004.99
2019-01-19T11:31:57.656Z,1005.00
2019-01-19T11:32:57.627Z,1005.05
2019-01-19T11:33:57.615Z,1004.94
2019-01-19T11:34:57.603Z,1004.93
2019-01-19T11:35:57.591Z,1004.86
2019-01-19T11:36:57.602Z,1004.82
2019-01-19T11:37:57.571Z,1004.83
2019-01-19T11:38:57.569Z,1004.78
2019-01-19T11:39:57.551Z,1004.79
2019-01-19T11:40:57.534Z,1004.82
2019-01-19T11:41:57.541Z,1004.78
2019-01-19T11:42:57.510Z,1004.71
2019-01-19T11:43:57.500Z,1004.70
2019-01-19T11:44:57.486Z,1004.75
2019-01-19T11:45:57.475Z,1004.72
2019-01-19T11:46:57.484Z,1004.71
2019-01-19T11:47:57.462Z,1004.67
2019-01-19T11:48:57.444Z,1004.64
2019-01-19T11:49:57.438Z,1004.59
2019-01-19T11:50:57.418Z,1004.66
2019-01-19T11:51:57.426Z,1004.59
2019-01-19T11:52:57.394Z,1004.57
2019-01-19T11:53:57.384Z,1004.63
2019-01-19T11:54:57.375Z,1004.57
2019-01-19T11:55:57.363Z,1004.56
2019-01-19T11:56:57.391Z,1004.56
2019-01-19T11:57:57.337Z,1004.54
2019-01-19T11:58:57.327Z,1004.47
2019-01-19T11:59:57.321Z,1004.47
2019-01-19T12:00:57.304Z,1004.48
2019-01-19T12:01:57.297Z,1004.45
2019-01-19T12:02:57.299Z,1004.42
2019-01-19T12:03:57.271Z,1004.43
2019-01-19T12:04:57.259Z,1004.37
2019-01-19T12:05:57.249Z,1004.44
2019-01-19T12:06:57.235Z,1004.44
2019-01-19T12:07:57.243Z,1004.45
2019-01-19T12:08:57.213Z,1004.49
2019-01-19T12:09:57.201Z,1004.50
2019-01-19T12:10:57.194Z,1004.38
2019-01-19T12:11:57.179Z,1004.35
2019-01-19T12:12:57.573Z,1004.37
2019-01-19T12:13:57.156Z,1004.43
2019-01-19T12:14:57.142Z,1004.37
2019-01-19T12:15:57.131Z,1004.34
2019-01-19T12:16:57.123Z,1004.26
2019-01-19T12:17:57.125Z,1004.33
2019-01-19T12:18:57.097Z,1004.28
2019-01-19T12:19:57.086Z,1004.30
2019-01-19T12:20:57.078Z,1004.28
2019-01-19T12:21:57.067Z,1004.24
2019-01-19T12:22:57.070Z,1004.20
2019-01-19T12:23:57.038Z,1004.19
2019-01-19T12:24:57.027Z,1004.21
2019-01-19T12:25:57.015Z,1004.13
2019-01-19T12:26:57.003Z,1004.14
2019-01-19T12:27:57.010Z,1004.16
2019-01-19T12:28:56.980Z,1004.14
2019-01-19T12:29:56.969Z,1004.20
2019-01-19T12:30:56.956Z,1004.20
2019-01-19T12:31:56.945Z,1004.15
2019-01-19T12:32:56.958Z,1004.17
2019-01-19T12:33:56.920Z,1004.17
2019-01-19T12:34:56.909Z,1004.10
2019-01-19T12:35:56.897Z,1004.16
2019-01-19T12:36:56.888Z,1004.16
2019-01-19T12:37:56.874Z,1004.11
2019-01-19T12:38:56.879Z,1004.09
2019-01-19T12:39:56.852Z,1004.03
2019-01-19T12:40:56.838Z,1004.02
2019-01-19T12:41:56.829Z,1004.03
2019-01-19T12:42:56.816Z,1004.05
2019-01-19T12:43:56.822Z,1004.08
2019-01-19T12:44:56.793Z,1003.98
2019-01-19T12:45:56.780Z,1004.01
2019-01-19T12:46:57.031Z,1003.99
2019-01-19T12:47:56.759Z,1003.99
2019-01-19T12:48:56.768Z,1003.97
2019-01-19T12:49:56.737Z,1003.98
2019-01-19T12:50:56.723Z,1003.97
2019-01-19T12:51:57.895Z,1003.94
2019-01-19T12:52:56.702Z,1003.86
2019-01-19T12:53:56.708Z,1003.88
2019-01-19T12:54:56.684Z,1003.88
2019-01-19T12:55:56.669Z,1003.81
2019-01-19T12:56:56.654Z,1003.85
2019-01-19T12:57:56.644Z,1003.84
2019-01-19T12:58:56.653Z,1003.82
2019-01-19T12:59:56.622Z,1003.77
2019-01-19T13:00:56.614Z,1003.76
2019-01-19T13:01:56.600Z,1003.71
2019-01-19T13:02:56.588Z,1003.73
2019-01-19T13:03:56.595Z,1003.74
2019-01-19T13:04:56.566Z,1003.68
2019-01-19T13:05:56.553Z,1003.65
2019-01-19T13:06:56.541Z,1003.58
2019-01-19T13:07:56.532Z,1003.58
2019-01-19T13:08:56.545Z,1003.60
2019-01-19T13:09:56.507Z,1003.62
2019-01-19T13:10:56.497Z,1003.57
2019-01-19T13:11:56.485Z,1003.61
2019-01-19T13:12:56.472Z,1003.60
2019-01-19T13:14:03.082Z,1003.55
2019-01-19T13:14:57.468Z,1003.51
2019-01-19T13:15:56.441Z,1003.51
2019-01-19T13:16:56.426Z,1003.50
2019-01-19T13:17:56.416Z,1003.56
2019-01-19T13:18:56.403Z,1003.55
2019-01-19T13:19:56.410Z,1003.51
2019-01-19T13:20:56.379Z,1003.52
2019-01-19T13:21:56.369Z,1003.51
2019-01-19T13:22:56.357Z,1003.42
2019-01-19T13:23:56.344Z,1003.47
2019-01-19T13:24:56.351Z,1003.49
2019-01-19T13:25:56.322Z,1003.46
2019-01-19T13:26:56.310Z,1003.41
2019-01-19T13:27:56.298Z,1003.44
2019-01-19T13:28:56.287Z,1003.35
2019-01-19T13:29:56.294Z,1003.41
2019-01-19T13:30:56.263Z,1003.39
2019-01-19T13:31:56.262Z,1003.32
2019-01-19T13:32:56.241Z,1003.33
2019-01-19T13:33:56.293Z,1003.33
2019-01-19T13:34:56.253Z,1003.32
2019-01-19T13:35:56.206Z,1003.40
2019-01-19T13:36:56.193Z,1003.34
2019-01-19T13:37:56.209Z,1003.35
2019-01-19T13:38:56.171Z,1003.26
2019-01-19T13:39:56.170Z,1003.29
2019-01-19T13:40:56.167Z,1003.30
2019-01-19T13:41:56.137Z,1003.31
2019-01-19T13:42:56.128Z,1003.28
2019-01-19T13:43:56.113Z,1003.29
2019-01-19T13:44:56.105Z,1003.33
2019-01-19T13:45:56.111Z,1003.29
2019-01-19T13:46:56.085Z,1003.30
2019-01-19T13:47:56.066Z,1003.23
2019-01-19T13:48:56.057Z,1003.25
2019-01-19T13:49:56.047Z,1003.25
2019-01-19T13:50:56.052Z,1003.26
2019-01-19T13:51:56.023Z,1003.24
2019-01-19T13:52:56.042Z,1003.22
2019-01-19T13:53:56.002Z,1003.27
2019-01-19T13:54:55.989Z,1003.27
2019-01-19T13:55:55.999Z,1003.24
2019-01-19T13:56:55.967Z,1003.21
2019-01-19T13:57:55.954Z,1003.20
2019-01-19T13:58:55.944Z,1003.21
2019-01-19T13:59:55.931Z,1003.22
2019-01-19T14:00:55.940Z,1003.25
2019-01-19T14:01:55.908Z,1003.26
2019-01-19T14:02:55.898Z,1003.26
2019-01-19T14:03:55.888Z,1003.22
2019-01-19T14:04:55.876Z,1003.18
2019-01-19T14:05:55.886Z,1003.19
2019-01-19T14:06:55.855Z,1003.15
2019-01-19T14:07:55.841Z,1003.12
2019-01-19T14:08:55.830Z,1003.14
2019-01-19T14:09:55.823Z,1003.13
2019-01-19T14:10:55.809Z,1003.09
2019-01-19T14:11:55.815Z,1003.07
2019-01-19T14:12:55.785Z,1003.10
2019-01-19T14:13:55.772Z,1003.11
2019-01-19T14:14:55.762Z,1003.07
2019-01-19T14:15:55.773Z,1003.05
2019-01-19T14:16:55.740Z,1002.99
2019-01-19T14:17:55.726Z,1003.08
2019-01-19T14:18:55.715Z,1003.08
2019-01-19T14:19:55.705Z,1003.07
2019-01-19T14:20:55.700Z,1003.05
2019-01-19T14:21:55.735Z,1003.08
2019-01-19T14:22:55.671Z,1003.07
2019-01-19T14:23:55.662Z,1003.05
2019-01-19T14:24:55.648Z,1003.01
2019-01-19T14:25:55.636Z,1003.06
2019-01-19T14:26:55.651Z,1003.00
2019-01-19T14:27:55.612Z,1003.05
2019-01-19T14:28:55.603Z,1002.99
2019-01-19T14:29:55.592Z,1003.00
2019-01-19T14:30:55.579Z,1003.01
2019-01-19T14:31:55.588Z,1003.00
2019-01-19T14:32:55.554Z,1002.96
2019-01-19T14:33:55.545Z,1002.98
2019-01-19T14:34:55.535Z,1003.00
2019-01-19T14:35:55.522Z,1002.95
2019-01-19T14:36:55.528Z,1002.94
2019-01-19T14:37:55.499Z,1002.95
2019-01-19T14:38:56.926Z,1002.94
2019-01-19T14:39:55.478Z,1002.93
2019-01-19T14:40:55.466Z,1002.90
2019-01-19T14:41:55.473Z,1002.90
2019-01-19T14:42:55.441Z,1002.86
2019-01-19T14:43:55.429Z,1002.91
2019-01-19T14:44:55.422Z,1002.89
2019-01-19T14:45:55.413Z,1002.84
2019-01-19T14:46:55.414Z,1002.88
2019-01-19T14:47:55.385Z,1002.79
2019-01-19T14:48:55.374Z,1002.84
2019-01-19T14:49:55.362Z,1002.78
2019-01-19T14:50:55.356Z,1002.78
2019-01-19T14:51:55.360Z,1002.84
2019-01-19T14:52:55.329Z,1002.83
2019-01-19T14:53:55.317Z,1002.83
2019-01-19T14:54:55.305Z,1002.78
2019-01-19T14:55:55.294Z,1002.76
2019-01-19T14:56:55.283Z,1002.77
2019-01-19T14:57:55.292Z,1002.76
2019-01-19T14:58:55.260Z,1002.73
2019-01-19T14:59:55.249Z,1002.77
2019-01-19T15:00:55.237Z,1002.74
2019-01-19T15:01:55.226Z,1002.71
2019-01-19T15:02:55.237Z,1002.75
2019-01-19T15:03:55.203Z,1002.71
2019-01-19T15:04:55.192Z,1002.74
2019-01-19T15:05:55.180Z,1002.69
2019-01-19T15:06:55.169Z,1002.76
2019-01-19T15:07:55.177Z,1002.74
2019-01-19T15:08:55.147Z,1002.69
2019-01-19T15:09:55.138Z,1002.72
2019-01-19T15:10:55.124Z,1002.72
2019-01-19T15:11:55.117Z,1002.70
2019-01-19T15:12:55.141Z,1002.68
2019-01-19T15:13:55.089Z,1002.71
2019-01-19T15:14:55.080Z,1002.65
2019-01-19T15:15:55.065Z,1002.64
2019-01-19T15:16:55.055Z,1002.65
2019-01-19T15:17:55.042Z,1002.64
2019-01-19T15:18:55.049Z,1002.59
2019-01-19T15:19:55.025Z,1002.59
2019-01-19T15:20:55.008Z,1002.61
2019-01-19T15:21:54.996Z,1002.64
2019-01-19T15:22:54.985Z,1002.59
2019-01-19T15:23:54.996Z,1002.63
2019-01-19T15:24:54.961Z,1002.59
2019-01-19T15:25:54.949Z,1002.64
2019-01-19T15:26:54.956Z,1002.57
2019-01-19T15:27:54.926Z,1002.64
2019-01-19T15:28:54.939Z,1002.57
2019-01-19T15:29:54.904Z,1002.58
2019-01-19T15:30:54.890Z,1002.58
2019-01-19T15:31:54.882Z,1002.58
2019-01-19T15:32:54.871Z,1002.61
2019-01-19T15:33:54.874Z,1002.63
2019-01-19T15:34:54.844Z,1002.59
2019-01-19T15:35:54.831Z,1002.59
2019-01-19T15:36:54.830Z,1002.61
2019-01-19T15:37:54.808Z,1002.59
2019-01-19T15:39:01.846Z,1002.56
2019-01-19T15:39:54.786Z,1002.57
2019-01-19T15:40:54.775Z,1002.53
2019-01-19T15:41:54.764Z,1002.56
2019-01-19T15:42:54.753Z,1002.57
2019-01-19T15:43:54.760Z,1002.54
2019-01-19T15:44:54.733Z,1002.52
2019-01-19T15:45:54.720Z,1002.49
2019-01-19T15:46:54.709Z,1002.52
2019-01-19T15:47:54.697Z,1002.55
2019-01-19T15:48:54.711Z,1002.51
2019-01-19T15:49:54.675Z,1002.56
2019-01-19T15:50:54.665Z,1002.53
2019-01-19T15:51:54.651Z,1002.55
2019-01-19T15:52:54.641Z,1002.55
2019-01-19T15:53:54.630Z,1002.57
2019-01-19T15:54:54.639Z,1002.54
2019-01-19T15:55:54.608Z,1002.55
2019-01-19T15:56:54.596Z,1002.54
2019-01-19T15:57:54.611Z,1002.50
2019-01-19T15:58:54.577Z,1002.46
2019-01-19T15:59:54.588Z,1002.48
2019-01-19T16:00:54.552Z,1002.51
2019-01-19T16:01:54.546Z,1002.48
2019-01-19T16:02:54.530Z,1002.48
2019-01-19T16:03:54.519Z,1002.49
2019-01-19T16:04:54.525Z,1002.49
2019-01-19T16:05:54.497Z,1002.55
2019-01-19T16:06:54.486Z,1002.50
2019-01-19T16:07:54.484Z,1002.54
2019-01-19T16:08:54.463Z,1002.54
2019-01-19T16:09:54.472Z,1002.54
2019-01-19T16:10:54.441Z,1002.57
2019-01-19T16:11:54.429Z,1002.54
2019-01-19T16:12:54.420Z,1002.55
2019-01-19T16:13:54.411Z,1002.54
2019-01-19T16:14:54.422Z,1002.52
2019-01-19T16:15:54.387Z,1002.54
2019-01-19T16:16:54.376Z,1002.53
2019-01-19T16:17:54.364Z,1002.51
2019-01-19T16:18:54.350Z,1002.49
2019-01-19T16:19:54.342Z,1002.52
2019-01-19T16:20:54.347Z,1002.51
2019-01-19T16:21:54.317Z,1002.48
2019-01-19T16:22:54.306Z,1002.52
2019-01-19T16:23:54.296Z,1002.48
2019-01-19T16:24:54.284Z,1002.48
2019-01-19T16:25:54.290Z,1002.51
2019-01-19T16:26:54.262Z,1002.51
2019-01-19T16:27:54.248Z,1002.52
2019-01-19T16:28:54.237Z,1002.49
2019-01-19T16:29:54.226Z,1002.50
2019-01-19T16:30:54.236Z,1002.46
2019-01-19T16:31:54.207Z,1002.49
2019-01-19T16:32:54.192Z,1002.51
2019-01-19T16:33:54.180Z,1002.47
2019-01-19T16:34:54.176Z,1002.47
2019-01-19T16:35:54.177Z,1002.48
2019-01-19T16:36:54.146Z,1002.50
2019-01-19T16:37:54.134Z,1002.49
2019-01-19T16:38:54.126Z,1002.53
2019-01-19T16:39:54.113Z,1002.48
2019-01-19T16:40:54.125Z,1002.49
2019-01-19T16:41:54.089Z,1002.49
2019-01-19T16:42:54.080Z,1002.51
2019-01-19T16:43:54.070Z,1002.48
2019-01-19T16:44:54.062Z,1002.46
2019-01-19T16:45:54.063Z,1002.52
2019-01-19T16:46:54.033Z,1002.53
2019-01-19T16:47:54.022Z,1002.51
2019-01-19T16:48:54.012Z,1002.54
2019-01-19T16:49:53.999Z,1002.53
2019-01-19T16:50:54.006Z,1002.53
2019-01-19T16:51:53.978Z,1002.53
2019-01-19T16:52:53.964Z,1002.55
2019-01-19T16:53:53.953Z,1002.50
2019-01-19T16:54:53.943Z,1002.47
2019-01-19T16:55:53.970Z,1002.51
2019-01-19T16:56:53.919Z,1002.48
2019-01-19T16:57:53.907Z,1002.51
2019-01-19T16:58:53.897Z,1002.53
2019-01-19T16:59:53.885Z,1002.50
2019-01-19T17:00:53.874Z,1002.49
2019-01-19T17:01:53.881Z,1002.53
2019-01-19T17:02:53.850Z,1002.51
2019-01-19T17:03:53.838Z,1002.49
2019-01-19T17:04:53.830Z,1002.50
2019-01-19T17:05:53.817Z,1002.46
2019-01-19T17:06:53.823Z,1002.46
2019-01-19T17:07:53.801Z,1002.44
2019-01-19T17:08:53.781Z,1002.44
2019-01-19T17:09:53.773Z,1002.43
2019-01-19T17:10:53.760Z,1002.44
2019-01-19T17:11:53.767Z,1002.42
2019-01-19T17:12:53.736Z,1002.43
2019-01-19T17:13:53.725Z,1002.44
2019-01-19T17:14:53.714Z,1002.45
2019-01-19T17:15:53.705Z,1002.39
2019-01-19T17:16:53.710Z,1002.38
